createdAt,value
2019-05-06T00:01:24.259Z,74.34
2019-05-06T00:03:54.187Z,74.42
2019-05-06T00:06:23.656Z,74.49
2019-05-06T00:08:54.590Z,74.58
2019-05-06T00:11:23.850Z,74.70
2019-05-06T00:13:54.307Z,74.97
2019-05-06T00:16:23.782Z,74.95
2019-05-06T00:18:54.138Z,74.98
2019-05-06T00:21:24.422Z,75.15
2019-05-06T00:23:54.602Z,75.31
2019-05-06T00:26:40.937Z,75.29
2019-05-06T00:29:11.098Z,75.27
2019-05-06T00:31:39.528Z,75.29
2019-05-06T00:34:08.027Z,75.40
2019-05-06T00:36:36.700Z,75.63
2019-05-06T00:39:26.996Z,75.68
2019-05-06T00:42:00.073Z,75.73
2019-05-06T00:44:28.494Z,76.24
2019-05-06T00:46:56.954Z,76.15
2019-05-06T00:49:25.435Z,76.11
2019-05-06T00:51:55.048Z,76.25
2019-05-06T00:54:27.781Z,76.25
2019-05-06T00:56:56.644Z,76.52
2019-05-06T00:59:25.075Z,76.62
2019-05-06T01:01:53.980Z,76.91
2019-05-06T01:04:24.511Z,76.89
2019-05-06T01:06:54.491Z,77.02
2019-05-06T01:09:23.960Z,77.23
2019-05-06T01:11:54.606Z,77.28
2019-05-06T01:14:30.953Z,77.28
2019-05-06T01:16:59.520Z,77.36
2019-05-06T01:19:27.955Z,77.56
2019-05-06T01:21:56.401Z,77.66
2019-05-06T01:24:24.845Z,77.89
2019-05-06T01:26:53.745Z,77.98
2019-05-06T01:29:24.052Z,77.93
2019-05-06T01:31:54.455Z,78.25
2019-05-06T01:34:24.517Z,78.12
2019-05-06T01:36:54.568Z,78.11
2019-05-06T01:39:39.659Z,78.24
2019-05-06T01:42:09.728Z,78.23
2019-05-06T01:44:38.166Z,78.38
2019-05-06T01:47:06.838Z,78.35
2019-05-06T01:49:35.249Z,78.29
2019-05-06T01:52:04.333Z,78.27
2019-05-06T01:54:34.354Z,78.15
2019-05-06T01:57:04.446Z,78.20
2019-05-06T01:59:34.072Z,78.28
2019-05-06T02:02:04.242Z,78.21
2019-05-06T02:04:33.791Z,78.21
2019-05-06T02:07:03.762Z,78.21
2019-05-06T02:09:34.230Z,78.22
2019-05-06T02:12:04.557Z,78.26
2019-05-06T02:14:34.115Z,78.31
2019-05-06T02:17:03.655Z,78.32
2019-05-06T02:19:32.203Z,78.25
2019-05-06T02:22:04.326Z,78.38
2019-05-06T02:24:37.422Z,78.24
2019-05-06T02:27:06.608Z,78.33
2019-05-06T02:29:36.671Z,78.45
2019-05-06T02:32:24.416Z,78.36
2019-05-06T02:35:00.824Z,78.58
2019-05-06T02:37:46.044Z,78.48
2019-05-06T02:40:18.975Z,78.36
2019-05-06T02:42:47.991Z,78.25
2019-05-06T02:45:16.680Z,78.16
2019-05-06T02:47:55.980Z,78.14
2019-05-06T02:50:42.732Z,78.24
2019-05-06T02:53:13.375Z,78.23
2019-05-06T02:55:43.069Z,78.21
2019-05-06T02:58:14.587Z,78.23
2019-05-06T03:00:43.021Z,78.26
2019-05-06T03:03:13.986Z,78.38
2019-05-06T03:05:43.945Z,78.50
2019-05-06T03:08:13.429Z,78.47
2019-05-06T03:10:44.125Z,78.61
2019-05-06T03:13:14.297Z,78.66
2019-05-06T03:15:43.594Z,78.99
2019-05-06T03:18:14.722Z,79.08
2019-05-06T03:20:58.358Z,79.17
2019-05-06T03:23:43.372Z,79.26
2019-05-06T03:26:13.738Z,79.37
2019-05-06T03:28:44.043Z,79.54
2019-05-06T03:31:16.118Z,79.62
2019-05-06T03:34:03.845Z,79.59
2019-05-06T03:36:23.579Z,79.49
2019-05-06T03:38:43.254Z,79.60
2019-05-06T03:41:13.871Z,79.54
2019-05-06T03:43:43.523Z,79.59
2019-05-06T03:46:14.280Z,79.79
2019-05-06T03:48:53.600Z,79.68
2019-05-06T03:51:23.302Z,79.60
2019-05-06T03:53:56.316Z,79.54
2019-05-06T03:56:23.989Z,79.56
2019-05-06T03:58:53.728Z,79.55
2019-05-06T04:01:24.128Z,79.53
2019-05-06T04:03:56.954Z,79.50
2019-05-06T04:06:24.211Z,79.60
2019-05-06T04:08:53.683Z,79.50
2019-05-06T04:11:23.824Z,79.42
2019-05-06T04:13:53.837Z,79.31
2019-05-06T04:16:36.172Z,79.18
2019-05-06T04:19:23.807Z,79.07
2019-05-06T04:21:56.757Z,78.95
2019-05-06T04:24:35.458Z,78.69
2019-05-06T04:27:25.263Z,78.44
2019-05-06T04:29:54.509Z,78.32
2019-05-06T04:32:23.859Z,78.17
2019-05-06T04:34:53.574Z,77.92
2019-05-06T04:37:24.223Z,77.74
2019-05-06T04:39:53.529Z,77.64
2019-05-06T04:42:26.328Z,77.43
2019-05-06T04:44:53.346Z,77.27
2019-05-06T04:47:24.191Z,77.00
2019-05-06T04:49:53.083Z,76.71
2019-05-06T04:52:22.807Z,76.10
2019-05-06T04:54:53.404Z,76.01
2019-05-06T04:57:23.828Z,76.04
2019-05-06T04:59:54.186Z,75.85
2019-05-06T05:02:23.135Z,75.72
2019-05-06T05:04:53.216Z,75.49
2019-05-06T05:07:22.492Z,75.21
2019-05-06T05:09:53.634Z,75.14
2019-05-06T05:12:39.169Z,74.84
2019-05-06T05:15:12.431Z,74.88
2019-05-06T05:17:45.497Z,74.80
2019-05-06T05:20:13.999Z,74.85
2019-05-06T05:22:42.500Z,74.80
2019-05-06T05:25:12.276Z,74.81
2019-05-06T05:27:42.104Z,74.84
2019-05-06T05:30:12.434Z,74.72
2019-05-06T05:32:42.791Z,74.56
2019-05-06T05:35:12.753Z,74.31
2019-05-06T05:37:41.992Z,73.79
2019-05-06T05:40:12.999Z,73.30
2019-05-06T05:42:43.477Z,72.68
2019-05-06T05:45:12.916Z,71.89
2019-05-06T05:47:42.519Z,71.09
2019-05-06T05:50:18.597Z,71.13
2019-05-06T05:52:47.054Z,71.36
2019-05-06T05:55:15.476Z,71.06
2019-05-06T05:57:44.089Z,70.88
2019-05-06T06:00:13.054Z,70.98
2019-05-06T06:02:43.658Z,70.78
2019-05-06T06:05:12.498Z,70.62
2019-05-06T06:07:42.224Z,70.21
2019-05-06T06:10:22.589Z,70.05
2019-05-06T06:12:52.868Z,70.02
2019-05-06T06:15:25.977Z,70.07
2019-05-06T06:17:59.531Z,70.20
2019-05-06T06:20:46.068Z,70.25
2019-05-06T06:23:16.264Z,70.12
2019-05-06T06:25:44.708Z,70.07
2019-05-06T06:28:13.125Z,69.97
2019-05-06T06:30:49.125Z,69.83
2019-05-06T06:33:17.839Z,69.75
2019-05-06T06:35:54.155Z,69.60
2019-05-06T06:38:32.262Z,69.57
2019-05-06T06:41:02.553Z,69.43
2019-05-06T06:43:32.425Z,69.41
2019-05-06T06:46:02.509Z,69.10
2019-05-06T06:48:32.033Z,69.29
2019-05-06T06:51:03.278Z,69.22
2019-05-06T06:53:32.723Z,69.01
2019-05-06T06:56:03.196Z,68.89
2019-05-06T06:58:33.255Z,68.55
2019-05-06T07:01:03.385Z,68.05
2019-05-06T07:03:39.942Z,68.21
2019-05-06T07:06:12.749Z,68.41
2019-05-06T07:08:42.620Z,68.53
2019-05-06T07:11:13.061Z,68.54
2019-05-06T07:13:44.525Z,68.12
2019-05-06T07:16:12.958Z,67.97
2019-05-06T07:18:42.732Z,68.11
2019-05-06T07:21:14.008Z,67.97
2019-05-06T07:23:42.681Z,67.93
2019-05-06T07:26:12.804Z,67.42
2019-05-06T07:28:43.648Z,66.71
2019-05-06T07:31:21.907Z,66.51
2019-05-06T07:33:42.863Z,66.60
2019-05-06T07:36:13.079Z,66.60
2019-05-06T07:38:43.405Z,66.22
2019-05-06T07:41:19.793Z,66.01
2019-05-06T07:43:59.037Z,65.90
2019-05-06T07:46:33.099Z,65.26
2019-05-06T07:49:03.333Z,64.11
2019-05-06T07:51:32.592Z,63.42
2019-05-06T07:54:02.793Z,63.63
2019-05-06T07:56:32.206Z,63.99
2019-05-06T07:59:09.536Z,64.30
2019-05-06T08:01:43.844Z,64.56
2019-05-06T08:04:12.829Z,64.95
2019-05-06T08:06:42.737Z,65.84
2019-05-06T08:09:12.994Z,66.34
2019-05-06T08:11:42.241Z,67.72
2019-05-06T08:14:12.956Z,69.24
2019-05-06T08:16:46.491Z,70.16
2019-05-06T08:19:14.916Z,70.31
2019-05-06T08:21:45.018Z,71.24
2019-05-06T08:24:13.440Z,70.74
2019-05-06T08:26:42.830Z,71.86
2019-05-06T08:29:12.176Z,70.78
2019-05-06T08:31:43.064Z,70.00
2019-05-06T08:34:12.281Z,68.83
2019-05-06T08:36:43.260Z,68.17
2019-05-06T08:39:13.089Z,67.37
2019-05-06T08:41:42.306Z,64.85
2019-05-06T08:44:12.755Z,64.95
2019-05-06T08:46:43.242Z,64.47
2019-05-06T08:49:12.285Z,64.24
2019-05-06T08:51:42.800Z,63.67
2019-05-06T08:54:32.487Z,63.60
2019-05-06T08:57:02.561Z,62.82
2019-05-06T08:59:32.114Z,63.21
2019-05-06T09:02:03.244Z,62.95
2019-05-06T09:04:32.127Z,63.04
2019-05-06T09:07:02.729Z,61.73
2019-05-06T09:09:32.554Z,61.66
2019-05-06T09:12:02.653Z,60.69
2019-05-06T09:14:32.635Z,59.55
2019-05-06T09:17:02.914Z,60.12
2019-05-06T09:19:33.172Z,60.64
2019-05-06T09:22:02.528Z,61.42
2019-05-06T09:24:32.084Z,62.65
2019-05-06T09:27:03.113Z,64.53
2019-05-06T09:29:36.161Z,66.98
2019-05-06T09:32:06.230Z,68.72
2019-05-06T09:34:52.673Z,69.73
2019-05-06T09:37:24.067Z,71.03
2019-05-06T09:39:53.483Z,71.03
2019-05-06T09:42:23.321Z,71.54
2019-05-06T09:44:54.212Z,70.51
2019-05-06T09:47:24.005Z,69.77
2019-05-06T09:49:53.263Z,68.31
2019-05-06T09:52:23.119Z,67.23
2019-05-06T09:54:59.739Z,66.88
2019-05-06T09:57:45.932Z,67.62
2019-05-06T10:00:16.989Z,67.61
2019-05-06T10:02:45.432Z,68.17
2019-05-06T10:05:14.015Z,68.46
2019-05-06T10:07:42.530Z,68.17
2019-05-06T10:10:11.278Z,68.23
2019-05-06T10:12:41.957Z,67.21
2019-05-06T10:15:12.717Z,67.20
2019-05-06T10:17:42.902Z,66.84
2019-05-06T10:20:12.770Z,64.99
2019-05-06T10:22:43.094Z,65.22
2019-05-06T10:25:13.428Z,65.75
2019-05-06T10:27:43.816Z,65.18
2019-05-06T10:30:14.561Z,64.79
2019-05-06T10:32:47.306Z,63.99
2019-05-06T10:35:16.327Z,62.76
2019-05-06T10:37:59.831Z,61.79
2019-05-06T10:40:48.613Z,60.50
2019-05-06T10:43:29.033Z,58.73
2019-05-06T10:46:00.885Z,56.78
2019-05-06T10:48:27.906Z,58.28
2019-05-06T10:51:04.433Z,58.20
2019-05-06T10:53:33.077Z,57.05
2019-05-06T10:56:03.222Z,58.63
2019-05-06T10:58:32.656Z,60.55
2019-05-06T11:01:12.570Z,62.82
2019-05-06T11:03:42.005Z,63.87
2019-05-06T11:06:12.970Z,66.64
2019-05-06T11:08:42.070Z,67.12
2019-05-06T11:11:17.049Z,67.51
2019-05-06T11:13:43.829Z,67.06
2019-05-06T11:16:12.981Z,66.46
2019-05-06T11:18:42.641Z,67.41
2019-05-06T11:21:12.724Z,67.56
2019-05-06T11:23:41.884Z,68.74
2019-05-06T11:26:10.439Z,67.95
2019-05-06T11:28:42.592Z,68.14
2019-05-06T11:31:29.244Z,68.01
2019-05-06T11:34:12.611Z,67.21
2019-05-06T11:36:52.520Z,66.07
2019-05-06T11:39:23.334Z,65.12
2019-05-06T11:42:06.284Z,64.41
2019-05-06T11:44:23.973Z,64.18
2019-05-06T11:46:52.370Z,61.82
2019-05-06T11:49:23.251Z,61.11
2019-05-06T11:51:51.645Z,60.38
2019-05-06T11:54:23.649Z,58.97
2019-05-06T11:56:54.336Z,59.24
2019-05-06T11:59:22.801Z,60.23
2019-05-06T12:01:53.541Z,60.41
2019-05-06T12:04:23.013Z,62.13
2019-05-06T12:06:57.275Z,62.89
2019-05-06T12:09:22.407Z,65.09
2019-05-06T12:11:52.826Z,65.68
2019-05-06T12:14:22.661Z,65.06
2019-05-06T12:16:54.809Z,64.46
2019-05-06T12:19:22.523Z,63.73
2019-05-06T12:21:51.385Z,62.67
2019-05-06T12:24:19.886Z,62.38
2019-05-06T12:26:48.308Z,62.86
2019-05-06T12:29:16.939Z,63.52
2019-05-06T12:31:47.057Z,63.99
2019-05-06T12:34:15.743Z,64.45
2019-05-06T12:36:47.404Z,63.58
2019-05-06T12:39:19.655Z,63.48
2019-05-06T12:42:04.843Z,62.40
2019-05-06T12:44:34.993Z,61.77
2019-05-06T12:47:13.405Z,62.39
2019-05-06T12:49:42.606Z,61.96
2019-05-06T12:52:12.376Z,59.10
2019-05-06T12:54:42.997Z,58.75
2019-05-06T12:57:12.584Z,56.68
2019-05-06T12:59:42.498Z,55.75
2019-05-06T13:02:13.230Z,55.52
2019-05-06T13:04:51.744Z,56.19
2019-05-06T13:07:13.421Z,55.84
2019-05-06T13:09:44.982Z,55.77
2019-05-06T13:12:13.965Z,56.45
2019-05-06T13:14:43.062Z,56.31
2019-05-06T13:17:13.439Z,56.67
2019-05-06T13:19:42.865Z,57.03
2019-05-06T13:22:13.570Z,56.42
2019-05-06T13:24:42.284Z,55.47
2019-05-06T13:27:12.672Z,55.01
2019-05-06T13:29:42.906Z,55.31
2019-05-06T13:32:13.270Z,55.00
2019-05-06T13:34:42.435Z,54.61
2019-05-06T13:37:12.839Z,54.64
2019-05-06T13:39:43.530Z,53.81
2019-05-06T13:42:13.426Z,53.65
2019-05-06T13:44:42.555Z,54.15
2019-05-06T13:47:13.084Z,54.48
2019-05-06T13:49:52.353Z,54.29
2019-05-06T13:52:22.938Z,54.34
2019-05-06T13:54:52.989Z,54.44
2019-05-06T13:57:21.567Z,54.73
2019-05-06T13:59:52.963Z,53.41
2019-05-06T14:02:30.655Z,52.95
2019-05-06T14:04:59.495Z,52.40
2019-05-06T14:07:27.940Z,52.25
2019-05-06T14:09:56.356Z,52.62
2019-05-06T14:12:24.840Z,52.93
2019-05-06T14:14:53.267Z,53.09
2019-05-06T14:17:22.490Z,53.41
2019-05-06T14:19:53.134Z,53.93
2019-05-06T14:22:23.199Z,53.84
2019-05-06T14:25:00.066Z,52.93
2019-05-06T14:27:28.516Z,53.25
2019-05-06T14:29:58.596Z,53.10
2019-05-06T14:32:27.079Z,52.78
2019-05-06T14:34:55.613Z,52.38
2019-05-06T14:37:24.041Z,52.02
2019-05-06T14:39:59.229Z,51.23
2019-05-06T14:42:24.696Z,50.85
2019-05-06T14:44:53.120Z,50.45
2019-05-06T14:47:26.416Z,50.20
2019-05-06T14:49:54.856Z,50.70
2019-05-06T14:52:23.790Z,51.01
2019-05-06T14:54:53.996Z,50.96
2019-05-06T14:57:23.392Z,50.86
2019-05-06T14:59:55.224Z,50.83
2019-05-06T15:02:26.097Z,51.03
2019-05-06T15:04:54.016Z,51.19
2019-05-06T15:07:22.434Z,50.81
2019-05-06T15:10:07.868Z,51.60
2019-05-06T15:12:22.878Z,51.25
2019-05-06T15:14:58.203Z,50.10
2019-05-06T15:17:26.639Z,50.67
2019-05-06T15:19:55.065Z,51.54
2019-05-06T15:22:23.591Z,51.53
2019-05-06T15:24:53.599Z,51.61
2019-05-06T15:27:22.963Z,51.38
2019-05-06T15:29:54.356Z,51.25
2019-05-06T15:32:27.552Z,49.99
2019-05-06T15:34:57.591Z,50.41
2019-05-06T15:37:27.878Z,49.90
2019-05-06T15:39:56.298Z,50.54
2019-05-06T15:42:24.747Z,50.82
2019-05-06T15:44:53.550Z,50.40
2019-05-06T15:47:22.811Z,50.98
2019-05-06T15:49:52.652Z,51.62
2019-05-06T15:52:23.506Z,52.02
2019-05-06T15:54:52.490Z,52.98
2019-05-06T15:57:22.852Z,53.52
2019-05-06T15:59:52.989Z,53.96
2019-05-06T16:02:23.344Z,54.81
2019-05-06T16:04:51.996Z,55.53
2019-05-06T16:07:24.472Z,56.12
2019-05-06T16:09:55.006Z,56.64
2019-05-06T16:12:22.058Z,56.77
2019-05-06T16:14:52.995Z,56.90
2019-05-06T16:17:23.592Z,57.25
2019-05-06T16:19:51.034Z,57.04
2019-05-06T16:22:22.394Z,56.97
2019-05-06T16:25:09.833Z,57.11
2019-05-06T16:27:38.645Z,57.19
2019-05-06T16:30:09.411Z,56.99
2019-05-06T16:32:37.874Z,56.89
2019-05-06T16:35:06.863Z,56.82
2019-05-06T16:37:35.631Z,57.03
2019-05-06T16:40:05.109Z,55.57
2019-05-06T16:42:33.660Z,55.01
2019-05-06T16:45:06.880Z,55.11
2019-05-06T16:47:44.383Z,54.80
2019-05-06T16:50:16.943Z,54.33
2019-05-06T16:52:45.826Z,53.82
2019-05-06T16:55:17.849Z,53.07
2019-05-06T16:57:52.462Z,53.61
2019-05-06T17:00:23.162Z,52.97
2019-05-06T17:02:57.893Z,52.98
2019-05-06T17:05:37.290Z,52.92
2019-05-06T17:08:05.848Z,53.29
2019-05-06T17:10:34.603Z,53.19
2019-05-06T17:13:03.164Z,53.16
2019-05-06T17:15:32.600Z,53.48
2019-05-06T17:18:03.094Z,53.73
2019-05-06T17:20:32.560Z,53.82
2019-05-06T17:23:02.843Z,53.93
2019-05-06T17:25:32.918Z,54.05
2019-05-06T17:28:03.765Z,54.22
2019-05-06T17:30:46.528Z,53.93
2019-05-06T17:33:33.422Z,54.15
2019-05-06T17:36:03.037Z,54.37
2019-05-06T17:38:33.240Z,54.51
2019-05-06T17:41:02.999Z,54.55
2019-05-06T17:43:32.979Z,54.92
2019-05-06T17:46:04.901Z,55.07
2019-05-06T17:48:43.028Z,55.31
2019-05-06T17:51:19.371Z,55.39
2019-05-06T17:53:52.508Z,55.41
2019-05-06T17:56:22.265Z,55.26
2019-05-06T17:58:52.936Z,55.10
2019-05-06T18:01:33.124Z,55.49
2019-05-06T18:04:02.296Z,55.74
2019-05-06T18:06:32.995Z,55.82
2019-05-06T18:09:02.510Z,56.17
2019-05-06T18:11:33.227Z,56.34
2019-05-06T18:14:03.785Z,56.62
2019-05-06T18:16:33.451Z,56.59
2019-05-06T18:19:03.144Z,56.25
2019-05-06T18:21:31.887Z,56.19
2019-05-06T18:24:02.353Z,55.88
2019-05-06T18:26:33.355Z,55.80
2019-05-06T18:29:02.261Z,56.02
2019-05-06T18:31:32.900Z,56.04
2019-05-06T18:34:03.255Z,56.04
2019-05-06T18:36:31.135Z,56.26
2019-05-06T18:39:00.053Z,56.40
2019-05-06T18:41:29.420Z,56.80
2019-05-06T18:43:58.124Z,56.89
2019-05-06T18:46:26.739Z,57.00
2019-05-06T18:48:55.176Z,57.12
2019-05-06T18:51:23.603Z,57.10
2019-05-06T18:53:52.527Z,57.31
2019-05-06T18:56:22.366Z,57.87
2019-05-06T18:58:53.108Z,57.88
2019-05-06T19:01:23.277Z,58.07
2019-05-06T19:03:59.648Z,58.54
2019-05-06T19:06:28.126Z,58.65
2019-05-06T19:08:58.172Z,59.05
2019-05-06T19:11:26.658Z,59.08
2019-05-06T19:13:55.582Z,59.17
2019-05-06T19:16:24.008Z,59.29
2019-05-06T19:18:52.512Z,59.45
2019-05-06T19:21:27.388Z,59.63
2019-05-06T19:23:55.826Z,59.78
2019-05-06T19:26:24.532Z,59.85
2019-05-06T19:28:53.293Z,60.07
2019-05-06T19:31:22.917Z,60.34
2019-05-06T19:33:52.634Z,60.29
2019-05-06T19:36:23.558Z,60.47
2019-05-06T19:38:51.444Z,60.61
2019-05-06T19:41:22.216Z,60.67
2019-05-06T19:43:52.254Z,60.85
2019-05-06T19:46:20.537Z,60.89
2019-05-06T19:48:49.262Z,61.35
2019-05-06T19:51:17.727Z,61.35
2019-05-06T19:53:46.190Z,61.58
2019-05-06T19:56:14.630Z,61.76
2019-05-06T19:58:43.281Z,61.97
2019-05-06T20:01:11.933Z,62.39
2019-05-06T20:03:40.300Z,62.88
2019-05-06T20:06:28.485Z,63.22
2019-05-06T20:09:02.288Z,63.11
2019-05-06T20:11:33.195Z,63.46
2019-05-06T20:14:02.131Z,63.62
2019-05-06T20:16:32.300Z,63.90
2019-05-06T20:19:02.330Z,64.19
2019-05-06T20:21:32.843Z,64.34
2019-05-06T20:24:02.362Z,64.60
2019-05-06T20:26:32.410Z,64.73
2019-05-06T20:29:02.211Z,64.96
2019-05-06T20:31:32.164Z,65.16
2019-05-06T20:34:02.236Z,65.23
2019-05-06T20:36:33.032Z,65.43
2019-05-06T20:39:02.567Z,65.64
2019-05-06T20:41:32.900Z,66.46
2019-05-06T20:44:02.670Z,66.03
2019-05-06T20:46:32.344Z,66.21
2019-05-06T20:49:02.421Z,66.67
2019-05-06T20:51:32.792Z,66.42
2019-05-06T20:54:01.208Z,66.54
2019-05-06T20:56:29.682Z,66.55
2019-05-06T20:58:58.124Z,66.49
2019-05-06T21:01:26.751Z,66.55
2019-05-06T21:03:55.227Z,66.64
2019-05-06T21:06:24.933Z,66.74
2019-05-06T21:08:53.590Z,66.73
2019-05-06T21:11:28.832Z,67.11
2019-05-06T21:13:52.240Z,66.83
2019-05-06T21:16:22.525Z,66.87
2019-05-06T21:18:52.122Z,67.43
2019-05-06T21:21:20.710Z,67.06
2019-05-06T21:23:49.369Z,67.31
2019-05-06T21:26:17.872Z,67.17
2019-05-06T21:28:46.552Z,67.34
2019-05-06T21:31:15.406Z,67.60
2019-05-06T21:33:44.076Z,67.62
2019-05-06T21:36:12.536Z,67.60
2019-05-06T21:38:42.706Z,67.70
2019-05-06T21:41:12.359Z,67.45
2019-05-06T21:43:46.946Z,67.35
2019-05-06T21:46:12.988Z,67.52
2019-05-06T21:48:42.117Z,67.83
2019-05-06T21:51:12.286Z,68.64
2019-05-06T21:53:40.813Z,68.66
2019-05-06T21:56:09.606Z,68.97
2019-05-06T21:58:38.033Z,69.45
2019-05-06T22:01:08.254Z,69.89
2019-05-06T22:03:36.832Z,70.24
2019-05-06T22:06:05.352Z,70.49
2019-05-06T22:08:33.871Z,70.80
2019-05-06T22:11:03.081Z,71.07
2019-05-06T22:13:33.271Z,72.07
2019-05-06T22:16:04.855Z,71.61
2019-05-06T22:18:32.715Z,71.82
2019-05-06T22:21:17.851Z,72.22
2019-05-06T22:23:57.103Z,72.22
2019-05-06T22:26:27.148Z,72.50
2019-05-06T22:28:56.217Z,72.66
2019-05-06T22:31:26.988Z,72.81
2019-05-06T22:33:55.666Z,72.90
2019-05-06T22:36:24.312Z,73.04
2019-05-06T22:38:53.181Z,73.18
2019-05-06T22:41:23.307Z,73.39
2019-05-06T22:43:53.165Z,73.57
2019-05-06T22:46:23.448Z,73.68
2019-05-06T22:48:54.358Z,73.78
2019-05-06T22:51:22.971Z,74.01
2019-05-06T22:53:53.285Z,74.18
2019-05-06T22:56:23.005Z,74.23
2019-05-06T22:58:52.396Z,74.39
2019-05-06T23:01:32.466Z,74.59
2019-05-06T23:04:02.086Z,74.84
2019-05-06T23:06:32.839Z,74.87
2019-05-06T23:09:02.573Z,75.59
2019-05-06T23:11:32.765Z,75.25
2019-05-06T23:14:02.770Z,75.32
2019-05-06T23:16:33.079Z,75.35
2019-05-06T23:19:02.176Z,75.36
2019-05-06T23:21:30.655Z,75.39
2019-05-06T23:23:59.098Z,75.49
2019-05-06T23:26:27.663Z,75.71
2019-05-06T23:28:56.077Z,75.75
2019-05-06T23:31:24.770Z,76.05
2019-05-06T23:33:53.448Z,75.96
2019-05-06T23:36:22.906Z,76.09
2019-05-06T23:39:28.187Z,76.01
2019-05-06T23:42:33.050Z,76.11
2019-05-06T23:45:37.972Z,76.12
2019-05-06T23:48:43.040Z,76.23
2019-05-06T23:51:47.829Z,76.38
2019-05-06T23:54:52.841Z,76.40
2019-05-06T23:57:22.885Z,76.41
2019-05-06T23:59:51.877Z,76.28
